createdAt,value
2023-02-16T00:00:00.621Z,79.34
2023-02-16T00:05:02.195Z,79.70
2023-02-16T00:10:03.933Z,80.04
2023-02-16T00:15:18.547Z,79.90
2023-02-16T00:20:20.214Z,79.99
2023-02-16T00:25:21.776Z,80.34
2023-02-16T00:30:23.552Z,79.88
2023-02-16T00:35:25.259Z,79.99
2023-02-16T00:40:26.810Z,80.27
2023-02-16T00:45:28.753Z,80.11
2023-02-16T00:50:32.921Z,80.45
2023-02-16T00:55:35.497Z,80.32
2023-02-16T01:00:43.311Z,80.02
2023-02-16T01:05:45.054Z,80.25
2023-02-16T01:11:07.235Z,80.45
2023-02-16T01:16:13.333Z,80.45
2023-02-16T01:21:15.064Z,80.10
2023-02-16T01:26:18.945Z,80.34
2023-02-16T01:31:21.320Z,80.41
2023-02-16T01:36:26.836Z,80.42
2023-02-16T01:41:44.189Z,80.27
2023-02-16T01:47:05.823Z,80.61
2023-02-16T01:52:20.514Z,80.46
2023-02-16T01:57:27.699Z,81.20
2023-02-16T02:02:38.443Z,80.47
2023-02-16T02:07:57.879Z,80.63
2023-02-16T02:13:06.805Z,80.80
2023-02-16T02:18:09.301Z,80.75
2023-02-16T02:23:32.215Z,81.15
2023-02-16T02:28:45.425Z,81.13
2023-02-16T02:33:59.159Z,81.50
2023-02-16T02:39:13.077Z,81.52
2023-02-16T02:44:18.824Z,81.21
2023-02-16T02:49:20.461Z,80.99
2023-02-16T02:54:43.866Z,80.90
2023-02-16T03:00:16.590Z,81.44
2023-02-16T03:05:19.278Z,81.07
2023-02-16T03:10:46.785Z,80.59
2023-02-16T03:15:49.695Z,80.66
2023-02-16T03:21:10.310Z,80.82
2023-02-16T03:26:30.697Z,81.17
2023-02-16T03:31:38.552Z,81.36
2023-02-16T03:36:43.632Z,81.43
2023-02-16T03:41:51.136Z,81.36
2023-02-16T03:46:52.749Z,81.11
2023-02-16T03:51:54.309Z,81.53
2023-02-16T03:56:55.888Z,81.27
2023-02-16T04:01:57.491Z,81.53
2023-02-16T04:06:59.088Z,81.54
2023-02-16T04:12:19.056Z,81.47
2023-02-16T04:17:20.645Z,81.23
2023-02-16T04:22:22.324Z,81.78
2023-02-16T04:27:23.928Z,81.70
2023-02-16T04:32:25.504Z,81.89
2023-02-16T04:37:27.225Z,81.74
2023-02-16T04:42:28.931Z,81.83
2023-02-16T04:47:30.493Z,82.33
2023-02-16T04:52:32.381Z,82.30
2023-02-16T04:57:34.019Z,82.17
2023-02-16T05:02:35.629Z,82.15
2023-02-16T05:07:37.258Z,82.41
2023-02-16T05:12:57.233Z,82.19
2023-02-16T05:17:58.829Z,82.48
2023-02-16T05:23:00.439Z,82.29
2023-02-16T05:28:02.060Z,82.08
2023-02-16T05:33:03.750Z,82.06
2023-02-16T05:38:05.363Z,82.11
2023-02-16T05:43:07.093Z,82.39
2023-02-16T05:48:08.637Z,82.47
2023-02-16T05:53:10.192Z,83.30
2023-02-16T05:58:11.804Z,82.47
2023-02-16T06:03:13.388Z,82.56
2023-02-16T06:08:14.973Z,82.96
2023-02-16T06:13:17.086Z,83.29
2023-02-16T06:18:18.651Z,82.81
2023-02-16T06:23:20.346Z,83.35
2023-02-16T06:28:21.937Z,82.65
2023-02-16T06:33:23.511Z,83.45
2023-02-16T06:38:25.105Z,82.64
2023-02-16T06:43:27.687Z,82.36
2023-02-16T06:48:30.553Z,82.85
2023-02-16T06:53:32.124Z,82.74
2023-02-16T06:58:33.691Z,82.51
2023-02-16T07:03:35.434Z,82.39
2023-02-16T07:08:37.109Z,82.44
2023-02-16T07:13:38.761Z,82.83
2023-02-16T07:18:40.512Z,82.60
2023-02-16T07:23:42.808Z,82.49
2023-02-16T07:28:44.457Z,82.81
2023-02-16T07:33:46.184Z,83.09
2023-02-16T07:38:47.757Z,82.41
2023-02-16T07:43:49.371Z,83.21
2023-02-16T07:48:50.988Z,82.65
2023-02-16T07:53:52.618Z,82.22
2023-02-16T07:58:55.298Z,82.06
2023-02-16T08:03:57.168Z,81.91
2023-02-16T08:08:58.709Z,81.46
2023-02-16T08:14:00.564Z,81.53
2023-02-16T08:19:03.843Z,81.80
2023-02-16T08:24:07.611Z,81.87
2023-02-16T08:29:13.216Z,81.19
2023-02-16T08:34:16.800Z,80.79
2023-02-16T08:39:20.801Z,80.99
2023-02-16T08:44:24.305Z,81.44
2023-02-16T08:49:25.974Z,81.34
2023-02-16T08:54:30.703Z,81.16
2023-02-16T08:59:33.258Z,80.34
2023-02-16T09:04:36.700Z,79.75
2023-02-16T09:09:39.393Z,79.41
2023-02-16T09:14:42.056Z,78.62
2023-02-16T09:19:44.602Z,78.01
2023-02-16T09:24:46.567Z,77.37
2023-02-16T09:29:49.634Z,77.60
2023-02-16T09:34:51.289Z,77.65
2023-02-16T09:39:52.978Z,77.71
2023-02-16T09:45:09.840Z,77.83
2023-02-16T09:50:52.634Z,78.04
2023-02-16T09:56:17.630Z,78.19
2023-02-16T10:01:19.201Z,78.00
2023-02-16T10:06:31.003Z,77.70
2023-02-16T10:11:48.783Z,77.45
2023-02-16T10:17:15.239Z,77.71
2023-02-16T10:22:25.160Z,77.68
2023-02-16T10:27:33.203Z,77.65
2023-02-16T10:32:44.014Z,77.19
2023-02-16T10:38:19.976Z,77.63
2023-02-16T10:43:32.744Z,77.37
2023-02-16T10:48:34.568Z,77.06
2023-02-16T10:53:53.333Z,77.33
2023-02-16T10:58:56.611Z,77.11
2023-02-16T11:03:58.769Z,76.98
2023-02-16T11:09:02.995Z,76.85
2023-02-16T11:14:25.278Z,76.41
2023-02-16T11:19:28.834Z,76.04
2023-02-16T11:24:37.209Z,75.90
2023-02-16T11:29:38.800Z,75.90
2023-02-16T11:34:45.695Z,75.30
2023-02-16T11:39:50.957Z,75.50
2023-02-16T11:44:54.838Z,75.27
2023-02-16T11:50:05.287Z,75.14
2023-02-16T11:55:24.340Z,74.07
2023-02-16T12:00:26.586Z,73.73
2023-02-16T12:05:43.670Z,73.80
2023-02-16T12:10:54.447Z,73.78
2023-02-16T12:16:15.349Z,73.56
2023-02-16T12:21:45.426Z,73.95
2023-02-16T12:26:53.746Z,73.68
2023-02-16T12:32:01.323Z,73.15
2023-02-16T12:37:31.779Z,72.46
2023-02-16T12:42:48.327Z,72.35
2023-02-16T12:47:54.788Z,71.45
2023-02-16T12:53:12.314Z,72.32
2023-02-16T12:58:14.848Z,72.10
2023-02-16T13:03:29.060Z,71.95
2023-02-16T13:08:41.532Z,71.92
2023-02-16T13:13:45.225Z,72.08
2023-02-16T13:18:48.996Z,71.48
2023-02-16T13:24:14.738Z,71.31
2023-02-16T13:29:34.391Z,71.05
2023-02-16T13:34:54.554Z,70.28
2023-02-16T13:40:02.555Z,70.35
2023-02-16T13:45:15.971Z,70.32
2023-02-16T13:50:20.570Z,70.00
2023-02-16T13:55:32.746Z,70.31
2023-02-16T14:00:45.342Z,69.83
2023-02-16T14:05:47.996Z,69.77
2023-02-16T14:10:53.143Z,69.59
2023-02-16T14:15:56.782Z,70.16
2023-02-16T14:21:06.593Z,70.44
2023-02-16T14:26:10.196Z,70.28
2023-02-16T14:31:18.712Z,69.92
2023-02-16T14:36:24.184Z,69.66
2023-02-16T14:41:33.067Z,69.86
2023-02-16T14:46:56.043Z,69.91
2023-02-16T14:52:00.274Z,70.16
2023-02-16T14:57:18.847Z,69.88
2023-02-16T15:02:28.184Z,70.07
2023-02-16T15:07:30.504Z,69.93
2023-02-16T15:12:33.364Z,70.11
2023-02-16T15:17:47.932Z,70.14
2023-02-16T15:22:57.930Z,70.41
2023-02-16T15:28:25.922Z,70.36
2023-02-16T15:33:36.239Z,70.71
2023-02-16T15:38:40.364Z,71.05
2023-02-16T15:43:50.060Z,71.30
2023-02-16T15:48:51.693Z,71.24
2023-02-16T15:53:58.875Z,71.09
2023-02-16T15:59:02.726Z,71.30
2023-02-16T16:04:22.247Z,71.70
2023-02-16T16:09:33.859Z,72.30
2023-02-16T16:14:43.252Z,72.61
2023-02-16T16:19:44.898Z,72.97
2023-02-16T16:24:48.527Z,72.87
2023-02-16T16:29:50.116Z,72.88
2023-02-16T16:34:51.723Z,73.40
2023-02-16T16:40:00.966Z,73.52
2023-02-16T16:45:25.789Z,73.86
2023-02-16T16:50:28.789Z,74.51
2023-02-16T16:55:33.860Z,75.00
2023-02-16T17:00:38.312Z,74.82
2023-02-16T17:05:40.030Z,74.69
2023-02-16T17:10:41.971Z,74.34
2023-02-16T17:16:02.719Z,74.55
2023-02-16T17:21:05.262Z,74.99
2023-02-16T17:26:07.203Z,75.25
2023-02-16T17:31:10.230Z,74.72
2023-02-16T17:36:15.204Z,74.90
2023-02-16T17:41:21.412Z,74.81
2023-02-16T17:46:23.922Z,75.06
2023-02-16T17:51:26.273Z,75.18
2023-02-16T17:56:28.045Z,74.85
2023-02-16T18:01:29.667Z,74.63
2023-02-16T18:06:31.303Z,74.77
2023-02-16T18:11:32.928Z,75.19
2023-02-16T18:16:34.516Z,75.30
2023-02-16T18:21:36.086Z,75.38
2023-02-16T18:26:37.750Z,75.67
2023-02-16T18:31:40.549Z,76.08
2023-02-16T18:36:42.263Z,76.19
2023-02-16T18:41:43.842Z,75.99
2023-02-16T18:46:45.411Z,75.92
2023-02-16T18:51:47.035Z,76.60
2023-02-16T18:56:48.598Z,75.94
2023-02-16T19:01:57.503Z,76.10
2023-02-16T19:06:59.082Z,75.84
2023-02-16T19:12:00.702Z,76.21
2023-02-16T19:17:02.551Z,76.66
2023-02-16T19:22:04.379Z,76.82
2023-02-16T19:27:05.981Z,76.64
2023-02-16T19:32:07.714Z,76.74
2023-02-16T19:37:09.284Z,76.46
2023-02-16T19:42:10.929Z,76.10
2023-02-16T19:47:12.535Z,76.54
2023-02-16T19:52:14.106Z,76.04
2023-02-16T19:57:15.712Z,76.25
2023-02-16T20:02:17.572Z,76.12
2023-02-16T20:07:19.227Z,75.81
2023-02-16T20:12:21.048Z,75.61
2023-02-16T20:17:22.633Z,75.48
2023-02-16T20:22:24.169Z,75.80
2023-02-16T20:27:27.849Z,75.43
2023-02-16T20:32:29.856Z,76.17
2023-02-16T20:37:31.487Z,75.77
2023-02-16T20:42:33.379Z,75.94
2023-02-16T20:47:34.953Z,76.18
2023-02-16T20:52:36.697Z,76.19
2023-02-16T20:57:39.116Z,76.76
2023-02-16T21:02:40.908Z,76.61
2023-02-16T21:07:42.805Z,76.52
2023-02-16T21:12:44.835Z,76.57
2023-02-16T21:17:46.452Z,77.34
2023-02-16T21:22:48.063Z,77.73
2023-02-16T21:27:49.775Z,77.41
2023-02-16T21:32:51.620Z,77.40
2023-02-16T21:37:53.236Z,77.25
2023-02-16T21:42:54.804Z,77.15
2023-02-16T21:48:14.786Z,77.54
2023-02-16T21:53:16.400Z,77.34
2023-02-16T21:58:18.098Z,77.90
2023-02-16T22:03:20.551Z,77.99
2023-02-16T22:08:26.382Z,77.26
2023-02-16T22:13:27.962Z,77.43
2023-02-16T22:18:29.566Z,77.01
2023-02-16T22:23:31.476Z,76.84
2023-02-16T22:28:33.366Z,77.37
2023-02-16T22:33:35.604Z,77.05
2023-02-16T22:38:37.227Z,77.77
2023-02-16T22:43:39.308Z,77.61
2023-02-16T22:48:41.768Z,77.62
2023-02-16T22:53:43.605Z,77.89
2023-02-16T22:58:45.913Z,77.85
2023-02-16T23:03:49.344Z,77.95
2023-02-16T23:08:53.322Z,77.85
2023-02-16T23:13:55.249Z,78.13
2023-02-16T23:18:57.842Z,77.82
2023-02-16T23:24:00.199Z,77.63
2023-02-16T23:29:02.286Z,77.80
2023-02-16T23:34:04.966Z,78.69
2023-02-16T23:39:12.275Z,78.74
2023-02-16T23:44:14.588Z,78.98
2023-02-16T23:49:16.133Z,78.98
2023-02-16T23:54:17.692Z,78.61
2023-02-16T23:59:19.286Z,78.68
